Time;durP1;ratioP1;P1;durP2;ratioP2;P2;SDS_P1;SDS_P2;PMS_P1;PMS_P2;Temp;Humidity;BMP_temperature;BMP_pressure;BME280_temperature;BME280_humidity;BME280_pressure;Samples;Min_cycle;Max_cycle;Signal;HPM_P1;HPM_P2
2022/05/18 00:00:18;;;;;;;;;;;;;;;19.09;53.41;101721.81;5093129;28;20014;-69
2022/05/18 00:02:43;;;;;;;;;;;;;;;19.03;53.58;101719.63;5095117;28;19912;-69
2022/05/18 00:05:09;;;;;;;;;;;;;;;18.98;53.37;101729.97;5095621;28;19995;-68
2022/05/18 00:07:35;;;;;;;;;;;;;;;18.95;53.87;101730.22;5095089;28;19915;-69
2022/05/18 00:10:03;;;;;;;;;;;;;;;18.94;53.57;101733.88;5092242;28;19911;-69
2022/05/18 00:12:28;;;;;;;;;;;;;;;18.93;53.96;101741.13;5098844;28;20458;-69
2022/05/18 00:14:53;;;;;;;;;;;;;;;18.90;53.70;101738.69;5094827;28;19970;-69
2022/05/18 00:17:19;;;;;;;;;;;;;;;18.88;53.66;101737.09;5094720;28;20376;-69
2022/05/18 00:19:44;;;;;;;;;;;;;;;18.87;53.96;101738.09;5093596;28;19924;-69
2022/05/18 00:22:13;;;;;;;;;;;;;;;18.84;54.02;101736.50;5094816;28;19916;-69
2022/05/18 00:24:40;;;;;;;;;;;;;;;18.82;54.24;101743.88;5094307;28;19912;-69
2022/05/18 00:27:06;;;;;;;;;;;;;;;18.80;53.85;101741.31;5091797;28;19920;-68
2022/05/18 00:29:32;;;;;;;;;;;;;;;18.76;53.98;101741.69;5093677;28;20294;-69
2022/05/18 00:31:58;;;;;;;;;;;;;;;18.74;54.26;101743.66;5093103;28;19994;-69
2022/05/18 00:34:24;;;;;;;;;;;;;;;18.71;54.36;101744.75;5093292;28;19999;-69
2022/05/18 00:36:49;;;;;;;;;;;;;;;18.68;54.26;101734.22;5093831;28;19922;-68
2022/05/18 00:39:15;;;;;;;;;;;;;;;18.65;54.22;101739.88;5092388;28;19920;-68
2022/05/18 00:41:41;;;;;;;;;;;;;;;18.63;54.42;101736.44;5093052;28;19923;-67
2022/05/18 00:44:06;;;;;;;;;;;;;;;18.60;54.50;101734.00;5092548;28;19912;-68
2022/05/18 00:46:32;;;;;;;;;;;;;;;18.56;54.70;101738.78;5093942;28;19912;-68
2022/05/18 00:48:57;;;;;;;;;;;;;;;18.55;54.70;101738.91;5092033;28;20418;-69
2022/05/18 00:51:27;;;;;;;;;;;;;;;18.53;54.85;101739.03;5095287;28;19919;-67
2022/05/18 00:54:04;;;;;;;;;;;;;;;18.50;54.91;101733.91;5092124;28;19912;-67
2022/05/18 00:56:33;;;;;;;;;;;;;;;18.47;55.12;101738.66;5095208;28;19916;-67
2022/05/18 00:59:05;;;;;;;;;;;;;;;18.45;55.01;101735.28;5092343;28;19916;-67
2022/05/18 01:01:33;;;;;;;;;;;;;;;18.41;55.21;101737.34;5093899;28;20014;-69
2022/05/18 01:04:00;;;;;;;;;;;;;;;18.39;55.10;101736.63;5125187;27;20434;-67
2022/05/18 01:06:29;;;;;;;;;;;;;;;18.36;55.43;101734.19;5091522;28;19961;-67
2022/05/18 01:09:03;;;;;;;;;;;;;;;18.33;55.20;101734.44;5094138;28;20168;-67
2022/05/18 01:11:30;;;;;;;;;;;;;;;18.32;55.53;101740.78;5092265;28;20287;-68
2022/05/18 01:13:55;;;;;;;;;;;;;;;18.28;55.50;101731.25;5094643;28;19922;-69
2022/05/18 01:16:22;;;;;;;;;;;;;;;18.26;55.49;101735.91;5096188;28;19995;-69
2022/05/18 01:18:49;;;;;;;;;;;;;;;18.24;55.38;101743.28;5093730;28;19920;-67
2022/05/18 01:21:15;;;;;;;;;;;;;;;18.22;55.80;101742.53;5093888;28;19992;-69
2022/05/18 01:24:02;;;;;;;;;;;;;;;18.18;55.79;101731.16;5093774;28;19943;-67
2022/05/18 01:26:39;;;;;;;;;;;;;;;18.15;56.16;101734.09;5092911;28;20006;-69
2022/05/18 01:29:05;;;;;;;;;;;;;;;18.12;56.26;101729.81;5091971;28;19919;-67
2022/05/18 01:31:40;;;;;;;;;;;;;;;18.09;56.32;101732.75;5094608;28;19911;-69
2022/05/18 01:34:06;;;;;;;;;;;;;;;18.07;56.70;101734.72;5089890;28;19916;-69
2022/05/18 01:36:31;;;;;;;;;;;;;;;18.06;56.63;101740.19;5124076;27;20002;-67
2022/05/18 01:38:56;;;;;;;;;;;;;;;18.03;56.53;101732.38;5089288;28;20015;-69
2022/05/18 01:41:22;;;;;;;;;;;;;;;18.00;56.62;101736.19;5093826;28;20366;-69
2022/05/18 01:43:49;;;;;;;;;;;;;;;17.97;57.03;101738.25;5092401;28;19912;-69
2022/05/18 01:46:15;;;;;;;;;;;;;;;17.93;57.01;101734.97;5093787;28;20462;-69
2022/05/18 01:48:45;;;;;;;;;;;;;;;17.91;56.72;101735.09;5093677;28;19919;-69
2022/05/18 01:51:15;;;;;;;;;;;;;;;17.89;57.04;101737.03;5090292;28;19912;-69
2022/05/18 01:53:41;;;;;;;;;;;;;;;17.87;57.07;101730.06;5095789;28;19912;-68
2022/05/18 01:56:08;;;;;;;;;;;;;;;17.85;57.05;101737.41;5099275;28;19964;-69
2022/05/18 01:58:34;;;;;;;;;;;;;;;17.83;57.31;101737.53;5089602;28;19917;-69
2022/05/18 02:01:00;;;;;;;;;;;;;;;17.81;57.40;101728.72;5090906;28;19919;-69
2022/05/18 02:03:25;;;;;;;;;;;;;;;17.80;57.63;101735.09;5092592;28;19967;-69
2022/05/18 02:05:52;;;;;;;;;;;;;;;17.78;57.29;101733.50;5075607;28;19970;-69
2022/05/18 02:08:17;;;;;;;;;;;;;;;17.77;57.75;101726.38;5090439;28;19920;-69
2022/05/18 02:10:45;;;;;;;;;;;;;;;17.76;57.88;101732.72;5093091;28;19919;-69
2022/05/18 02:13:11;;;;;;;;;;;;;;;17.74;57.74;101729.31;5094806;28;19955;-69
2022/05/18 02:15:36;;;;;;;;;;;;;;;17.74;57.85;101732.00;5101348;28;19958;-69
2022/05/18 02:18:02;;;;;;;;;;;;;;;17.71;57.72;101722.34;5090554;28;20358;-68
2022/05/18 02:20:27;;;;;;;;;;;;;;;17.70;58.13;101728.69;5093812;28;19919;-69
2022/05/18 02:22:52;;;;;;;;;;;;;;;17.68;58.11;101736.88;5092665;28;19912;-68
2022/05/18 02:25:19;;;;;;;;;;;;;;;17.66;58.37;101728.06;5092228;28;20278;-69
2022/05/18 02:27:44;;;;;;;;;;;;;;;17.64;57.88;101721.09;5090393;28;19912;-69
2022/05/18 02:30:11;;;;;;;;;;;;;;;17.63;58.34;101722.09;5092255;28;19912;-69
2022/05/18 02:32:36;;;;;;;;;;;;;;;17.64;58.76;101718.41;5091652;28;19912;-69
2022/05/18 02:35:04;;;;;;;;;;;;;;;17.62;58.36;101720.38;5092426;28;20251;-69
2022/05/18 02:37:29;;;;;;;;;;;;;;;17.61;58.59;101719.50;5091927;28;19911;-67
2022/05/18 02:39:55;;;;;;;;;;;;;;;17.60;59.03;101728.56;5092935;28;19927;-69
2022/05/18 02:42:20;;;;;;;;;;;;;;;17.57;58.93;101726.09;5090769;28;19920;-69
2022/05/18 02:44:48;;;;;;;;;;;;;;;17.53;59.30;101726.47;5094868;28;19915;-69
2022/05/18 02:47:13;;;;;;;;;;;;;;;17.51;59.13;101731.97;5091005;28;19977;-69
2022/05/18 02:49:39;;;;;;;;;;;;;;;17.49;60.40;101725.84;5092070;28;19912;-69
2022/05/18 02:52:04;;;;;;;;;;;;;;;17.46;59.52;101728.78;5090463;28;19916;-67
2022/05/18 02:57:14;;;;;;;;;;;;;;;17.47;59.67;101728.66;5093443;28;19922;-69
2022/05/18 02:59:40;;;;;;;;;;;;;;;17.47;60.18;101730.47;5088961;28;20006;-69
2022/05/18 03:02:08;;;;;;;;;;;;;;;17.44;60.68;101733.41;5090474;28;19916;-67
2022/05/18 03:04:34;;;;;;;;;;;;;;;17.38;60.44;101742.84;5089200;28;19959;-68
2022/05/18 03:06:59;;;;;;;;;;;;;;;17.35;60.86;101737.66;5092694;28;19962;-69
2022/05/18 03:09:25;;;;;;;;;;;;;;;17.31;60.43;101736.19;5090419;28;20374;-67
2022/05/18 03:11:50;;;;;;;;;;;;;;;17.30;60.76;101739.03;5090469;28;19912;-69
2022/05/18 03:14:16;;;;;;;;;;;;;;;17.27;61.93;101742.81;5090103;28;20208;-69
2022/05/18 03:16:44;;;;;;;;;;;;;;;17.24;61.50;101743.03;5094161;28;19919;-69
2022/05/18 03:19:13;;;;;;;;;;;;;;;17.23;61.75;101744.84;5091002;28;20073;-69
2022/05/18 03:24:22;;;;;;;;;;;;;;;17.23;64.35;101754.75;5089311;28;19966;-68
2022/05/18 03:26:47;;;;;;;;;;;;;;;17.20;63.80;101761.22;5092707;28;19928;-68
2022/05/18 03:29:13;;;;;;;;;;;;;;;17.22;64.62;101755.75;5090451;28;20287;-68
2022/05/18 03:31:40;;;;;;;;;;;;;;;17.21;64.37;101754.88;5089977;28;19912;-68
2022/05/18 03:34:08;;;;;;;;;;;;;;;17.22;64.61;101755.75;5089609;28;19916;-68
2022/05/18 03:36:33;;;;;;;;;;;;;;;17.22;63.36;101759.28;5091278;28;20021;-69
2022/05/18 03:38:59;;;;;;;;;;;;;;;17.25;63.41;101764.41;5094282;28;19982;-68
2022/05/18 03:41:24;;;;;;;;;;;;;;;17.27;64.22;101760.78;5072855;28;19920;-68
2022/05/18 03:43:50;;;;;;;;;;;;;;;17.25;65.25;101759.03;5088170;28;19916;-69
2022/05/18 03:46:15;;;;;;;;;;;;;;;17.23;63.94;101765.50;5090656;28;19916;-69
2022/05/18 03:48:41;;;;;;;;;;;;;;;17.24;63.39;101773.47;5090114;28;19923;-68
2022/05/18 03:51:08;;;;;;;;;;;;;;;17.29;65.40;101765.03;5089321;28;19992;-69
2022/05/18 03:53:33;;;;;;;;;;;;;;;17.35;64.95;101774.47;5091246;28;19912;-69
2022/05/18 03:55:59;;;;;;;;;;;;;;;17.36;65.27;101776.19;5089433;28;19912;-69
2022/05/18 03:58:25;;;;;;;;;;;;;;;17.40;66.25;101773.13;5090351;28;19919;-68
2022/05/18 04:00:52;;;;;;;;;;;;;;;17.44;66.27;101771.94;5090730;28;19912;-69
2022/05/18 04:03:18;;;;;;;;;;;;;;;17.50;65.66;101778.69;5089736;28;20632;-69
2022/05/18 04:05:44;;;;;;;;;;;;;;;17.55;66.86;101762.16;5090669;28;20002;-69
2022/05/18 04:08:10;;;;;;;;;;;;;;;17.57;64.40;101758.38;5089567;28;20027;-69
2022/05/18 04:10:38;;;;;;;;;;;;;;;17.65;64.00;101766.72;5092407;28;19970;-68
2022/05/18 04:13:05;;;;;;;;;;;;;;;17.67;64.72;101767.44;5092724;28;19955;-69
2022/05/18 04:15:30;;;;;;;;;;;;;;;17.73;66.16;101767.94;5094711;28;20374;-69
2022/05/18 04:17:56;;;;;;;;;;;;;;;17.76;65.20;101767.69;5092324;28;19929;-69
2022/05/18 04:20:23;;;;;;;;;;;;;;;17.80;64.66;101770.06;5092843;28;19916;-69
2022/05/18 04:22:49;;;;;;;;;;;;;;;17.86;64.62;101772.28;5092378;28;19948;-69
2022/05/18 04:25:16;;;;;;;;;;;;;;;17.91;64.37;101772.78;5094782;28;20202;-69
2022/05/18 04:27:42;;;;;;;;;;;;;;;17.96;64.34;101766.16;5093002;28;19935;-67
2022/05/18 04:30:08;;;;;;;;;;;;;;;18.02;64.61;101769.22;5094307;28;20347;-69
2022/05/18 04:32:33;;;;;;;;;;;;;;;18.07;64.30;101783.16;5092883;28;19919;-69
2022/05/18 04:34:59;;;;;;;;;;;;;;;18.12;64.46;101783.66;5093721;28;20061;-68
2022/05/18 04:37:24;;;;;;;;;;;;;;;18.17;63.69;101780.59;5094040;28;20018;-69
2022/05/18 04:39:50;;;;;;;;;;;;;;;18.19;63.84;101788.56;5092457;28;19923;-67
2022/05/18 04:42:22;;;;;;;;;;;;;;;18.23;63.90;101796.25;5095844;28;19924;-69
2022/05/18 04:44:48;;;;;;;;;;;;;;;18.26;64.15;101795.16;5095707;28;19916;-68
2022/05/18 04:47:13;;;;;;;;;;;;;;;18.30;63.68;101799.31;5091502;28;19911;-69
2022/05/18 04:49:40;;;;;;;;;;;;;;;18.33;63.70;101796.38;5126539;27;19922;-69
2022/05/18 04:52:07;;;;;;;;;;;;;;;18.41;62.50;101795.75;5091291;28;19920;-69
2022/05/18 04:54:33;;;;;;;;;;;;;;;18.42;62.72;101806.41;5094866;28;19911;-69
2022/05/18 04:56:58;;;;;;;;;;;;;;;18.48;62.97;101807.75;5092144;28;20363;-69
2022/05/18 04:59:24;;;;;;;;;;;;;;;18.50;62.43;101816.53;5090246;28;20359;-69
2022/05/18 05:01:49;;;;;;;;;;;;;;;18.51;62.95;101812.91;5092390;28;19930;-69
2022/05/18 05:04:15;;;;;;;;;;;;;;;18.54;62.77;101812.63;5093072;28;19912;-68
2022/05/18 05:06:40;;;;;;;;;;;;;;;18.58;63.08;101820.34;5091759;28;20428;-69
2022/05/18 05:09:06;;;;;;;;;;;;;;;18.63;62.58;101827.22;5089320;28;19912;-69
2022/05/18 05:11:34;;;;;;;;;;;;;;;18.67;62.79;101818.72;5091177;28;19919;-69
2022/05/18 05:14:00;;;;;;;;;;;;;;;18.75;61.42;101824.38;5090139;28;19919;-69
2022/05/18 05:16:28;;;;;;;;;;;;;;;18.78;62.90;101818.75;5094037;28;19912;-69
2022/05/18 05:18:53;;;;;;;;;;;;;;;18.83;62.57;101826.47;5105891;28;19915;-69
2022/05/18 05:21:18;;;;;;;;;;;;;;;18.88;62.62;101831.47;5091052;28;20116;-69
2022/05/18 05:23:46;;;;;;;;;;;;;;;18.90;62.52;101833.03;5092594;28;19951;-69
2022/05/18 05:26:12;;;;;;;;;;;;;;;18.94;62.46;101834.53;5089929;28;19911;-69
2022/05/18 05:28:38;;;;;;;;;;;;;;;19.00;62.75;101834.00;5091751;28;20385;-69
2022/05/18 05:31:04;;;;;;;;;;;;;;;19.07;62.41;101831.66;5092851;28;20375;-68
2022/05/18 05:33:30;;;;;;;;;;;;;;;19.17;62.38;101832.59;5092572;28;20037;-69
2022/05/18 05:35:55;;;;;;;;;;;;;;;19.25;61.68;101835.50;5092889;28;19961;-69
2022/05/18 05:38:21;;;;;;;;;;;;;;;19.27;60.63;101849.72;5092356;28;20004;-69
2022/05/18 05:40:46;;;;;;;;;;;;;;;19.28;61.68;101837.09;5090778;28;19920;-67
2022/05/18 05:43:12;;;;;;;;;;;;;;;19.32;62.00;101846.63;5092149;28;20049;-69
2022/05/18 05:45:38;;;;;;;;;;;;;;;19.42;60.76;101844.03;5092118;28;20396;-69
2022/05/18 05:48:04;;;;;;;;;;;;;;;19.56;61.08;101843.72;5094604;28;19991;-69
2022/05/18 05:50:30;;;;;;;;;;;;;;;19.69;60.71;101844.38;5102085;28;19925;-69
2022/05/18 05:52:56;;;;;;;;;;;;;;;19.79;60.36;101857.94;5095011;28;20429;-68
2022/05/18 05:55:22;;;;;;;;;;;;;;;19.86;60.86;101859.13;5090360;28;20015;-68
2022/05/18 05:57:47;;;;;;;;;;;;;;;19.97;60.64;101869.00;5092057;28;20336;-69
2022/05/18 06:00:15;;;;;;;;;;;;;;;20.15;60.60;101870.13;5090399;28;19920;-69
2022/05/18 06:02:40;;;;;;;;;;;;;;;20.30;60.64;101862.50;5090296;28;19916;-69
2022/05/18 06:05:06;;;;;;;;;;;;;;;20.35;59.69;101867.50;5090849;28;20420;-68
2022/05/18 06:07:32;;;;;;;;;;;;;;;20.33;59.28;101877.59;5090578;28;19923;-69
2022/05/18 06:09:57;;;;;;;;;;;;;;;20.29;59.83;101871.59;5092628;28;19919;-69
2022/05/18 06:12:26;;;;;;;;;;;;;;;20.26;59.83;101862.91;5091899;28;19997;-68
2022/05/18 06:14:51;;;;;;;;;;;;;;;20.23;59.60;101865.88;5093567;28;19939;-68
2022/05/18 06:17:17;;;;;;;;;;;;;;;20.22;59.78;101874.97;5073435;28;19959;-69
2022/05/18 06:19:42;;;;;;;;;;;;;;;20.21;59.78;101879.53;5089919;28;19967;-69
2022/05/18 06:22:08;;;;;;;;;;;;;;;20.19;59.78;101885.06;5090519;28;19916;-69
2022/05/18 06:24:34;;;;;;;;;;;;;;;20.25;59.10;101896.31;5091836;28;19916;-69
2022/05/18 06:26:59;;;;;;;;;;;;;;;20.22;59.66;101891.19;5091179;28;19912;-68
2022/05/18 06:29:25;;;;;;;;;;;;;;;20.24;59.74;101898.16;5092130;28;19965;-69
2022/05/18 06:31:50;;;;;;;;;;;;;;;20.26;59.54;101900.72;5091498;28;20359;-69
2022/05/18 06:34:16;;;;;;;;;;;;;;;20.30;59.40;101904.88;5089801;28;19950;-69
2022/05/18 06:36:41;;;;;;;;;;;;;;;20.28;59.25;101898.75;5090404;28;19916;-67
2022/05/18 06:39:06;;;;;;;;;;;;;;;20.28;59.50;101901.47;5089910;28;20002;-69
2022/05/18 06:41:34;;;;;;;;;;;;;;;20.39;58.58;101907.63;5090815;28;19973;-69
2022/05/18 06:44:02;;;;;;;;;;;;;;;20.32;58.93;101909.13;5089459;28;19912;-69
2022/05/18 06:46:28;;;;;;;;;;;;;;;20.34;58.72;101914.44;5091269;28;19919;-69
2022/05/18 06:48:57;;;;;;;;;;;;;;;20.35;58.36;101908.03;5093532;28;20010;-68
2022/05/18 06:51:23;;;;;;;;;;;;;;;20.37;58.47;101904.19;5091531;28;20438;-69
2022/05/18 06:53:51;;;;;;;;;;;;;;;20.41;58.38;101904.78;5091157;28;20094;-69
2022/05/18 06:56:18;;;;;;;;;;;;;;;20.45;58.61;101913.50;5089854;28;19933;-69
2022/05/18 06:58:43;;;;;;;;;;;;;;;20.48;58.50;101914.06;5091044;28;20011;-69
2022/05/18 07:01:08;;;;;;;;;;;;;;;20.57;58.00;101917.84;5124343;27;20019;-69
2022/05/18 07:03:36;;;;;;;;;;;;;;;20.54;58.39;101916.25;5088408;28;19916;-69
2022/05/18 07:06:02;;;;;;;;;;;;;;;20.64;58.03;101929.81;5089589;28;19942;-68
2022/05/18 07:08:27;;;;;;;;;;;;;;;20.89;58.29;101923.09;5093213;28;20335;-69
2022/05/18 07:10:53;;;;;;;;;;;;;;;21.14;57.87;101924.41;5090241;28;19916;-68
2022/05/18 07:13:18;;;;;;;;;;;;;;;21.27;57.66;101932.28;5088449;28;20275;-67
2022/05/18 07:15:45;;;;;;;;;;;;;;;21.25;57.96;101937.81;5088971;28;19923;-69
2022/05/18 07:18:10;;;;;;;;;;;;;;;21.20;57.94;101929.25;5088127;28;19912;-69
2022/05/18 07:20:35;;;;;;;;;;;;;;;21.17;58.40;101926.00;5089316;28;19919;-69
2022/05/18 07:23:00;;;;;;;;;;;;;;;21.16;58.32;101935.13;5089193;28;19912;-69
2022/05/18 07:25:26;;;;;;;;;;;;;;;21.17;58.23;101931.41;5064991;28;20012;-68
2022/05/18 07:27:51;;;;;;;;;;;;;;;21.14;58.60;101942.50;5089848;28;19916;-67
2022/05/18 07:30:18;;;;;;;;;;;;;;;21.18;58.96;101938.50;5090098;28;20374;-68
2022/05/18 07:32:44;;;;;;;;;;;;;;;21.14;59.57;101942.50;5090792;28;19916;-68
2022/05/18 07:35:09;;;;;;;;;;;;;;;21.16;59.55;101943.22;5070406;28;20492;-67
2022/05/18 07:37:35;;;;;;;;;;;;;;;21.20;59.28;101941.94;5089684;28;19924;-68
2022/05/18 07:40:01;;;;;;;;;;;;;;;21.16;59.70;101940.53;5094464;28;19916;-68
2022/05/18 07:42:26;;;;;;;;;;;;;;;21.10;59.33;101940.06;5089473;28;20056;-68
2022/05/18 07:44:52;;;;;;;;;;;;;;;21.09;59.78;101941.09;5090591;28;19942;-68
2022/05/18 07:47:17;;;;;;;;;;;;;;;21.18;59.11;101946.63;5090563;28;19958;-68
2022/05/18 07:49:43;;;;;;;;;;;;;;;21.30;60.64;101946.38;5093739;28;19916;-68
2022/05/18 07:52:09;;;;;;;;;;;;;;;21.52;60.06;101944.44;5094168;28;20294;-69
2022/05/18 07:54:35;;;;;;;;;;;;;;;21.70;59.51;101950.00;5094523;28;19912;-67
2022/05/18 07:57:02;;;;;;;;;;;;;;;21.84;58.92;101952.28;5093210;28;20010;-69
2022/05/18 07:59:27;;;;;;;;;;;;;;;21.95;59.03;101959.41;5094705;28;19916;-69
2022/05/18 08:01:55;;;;;;;;;;;;;;;22.05;58.65;101954.84;5093832;28;19942;-68
2022/05/18 08:04:20;;;;;;;;;;;;;;;22.29;58.92;101953.53;5095650;28;19912;-69
2022/05/18 08:06:46;;;;;;;;;;;;;;;22.55;58.16;101964.59;5095241;28;19919;-69
2022/05/18 08:09:11;;;;;;;;;;;;;;;22.72;57.59;101965.69;5092951;28;20003;-68
2022/05/18 08:17:05;;;;;;;;;;;;;;;22.64;58.07;101964.56;5092997;28;19918;-69
2022/05/18 08:19:30;;;;;;;;;;;;;;;22.70;57.72;101959.53;5090669;28;19919;-68
2022/05/18 08:21:56;;;;;;;;;;;;;;;22.80;58.17;101961.22;5091220;28;19912;-68
2022/05/18 08:24:21;;;;;;;;;;;;;;;22.97;58.00;101959.63;5093400;28;19951;-69
2022/05/18 08:26:49;;;;;;;;;;;;;;;23.15;57.69;101956.94;5094020;28;19919;-69
2022/05/18 08:29:14;;;;;;;;;;;;;;;23.37;57.47;101965.66;5092584;28;19916;-70
2022/05/18 08:31:41;;;;;;;;;;;;;;;23.51;56.17;101965.13;5093497;28;19918;-69
2022/05/18 08:34:07;;;;;;;;;;;;;;;23.65;56.64;101970.03;5093916;28;19916;-69
2022/05/18 08:36:33;;;;;;;;;;;;;;;23.77;56.45;101973.41;5091596;28;19929;-68
2022/05/18 08:38:59;;;;;;;;;;;;;;;23.91;56.11;101970.09;5118904;27;19928;-69
2022/05/18 08:41:24;;;;;;;;;;;;;;;24.05;55.76;101974.13;5090129;28;20298;-68
2022/05/18 08:43:58;;;;;;;;;;;;;;;24.12;55.16;101982.50;5091700;28;19912;-69
2022/05/18 08:46:23;;;;;;;;;;;;;;;24.23;54.92;101977.66;5092651;28;19912;-69
2022/05/18 08:48:58;;;;;;;;;;;;;;;24.35;54.81;101975.53;5110590;27;20390;-68
2022/05/18 08:51:29;;;;;;;;;;;;;;;24.50;54.38;101981.28;5092864;28;19924;-69
2022/05/18 08:53:58;;;;;;;;;;;;;;;24.65;53.85;101974.25;5093866;28;19973;-69
2022/05/18 08:56:27;;;;;;;;;;;;;;;24.76;53.38;101975.81;5095274;28;19926;-69
2022/05/18 08:58:53;;;;;;;;;;;;;;;24.80;52.64;101977.22;5093171;28;19916;-69
2022/05/18 09:01:23;;;;;;;;;;;;;;;24.81;52.82;101976.19;5091591;28;20224;-69
2022/05/18 09:03:53;;;;;;;;;;;;;;;24.88;53.39;101979.97;5091801;28;20290;-69
2022/05/18 09:06:21;;;;;;;;;;;;;;;25.01;52.63;101973.22;5095037;28;19937;-69
2022/05/18 09:11:39;;;;;;;;;;;;;;;25.26;52.85;101974.16;5100869;28;20019;-69
2022/05/18 09:14:07;;;;;;;;;;;;;;;25.45;51.22;101971.16;5090101;28;20006;-69
2022/05/18 09:16:39;;;;;;;;;;;;;;;25.56;51.12;101973.56;5090937;28;19965;-69
2022/05/18 09:19:07;;;;;;;;;;;;;;;25.70;50.79;101972.03;5098761;28;19927;-70
2022/05/18 09:21:42;;;;;;;;;;;;;;;25.71;50.11;101970.19;5085826;28;20039;-69
2022/05/18 09:24:16;;;;;;;;;;;;;;;25.63;50.11;101972.91;5092936;28;19916;-69
2022/05/18 09:27:09;;;;;;;;;;;;;;;25.48;49.11;101981.72;5092187;28;19957;-68
2022/05/18 09:29:34;;;;;;;;;;;;;;;25.23;50.12;101985.41;5092866;28;19916;-69
2022/05/18 09:32:13;;;;;;;;;;;;;;;25.25;50.93;101983.38;5086008;28;19919;-69
2022/05/18 09:34:48;;;;;;;;;;;;;;;25.47;49.83;101968.25;5105328;28;19912;-69
2022/05/18 09:37:27;;;;;;;;;;;;;;;25.70;50.13;101979.38;5094150;28;19916;-69
2022/05/18 09:40:00;;;;;;;;;;;;;;;25.93;49.12;101974.16;5090531;28;19916;-68
2022/05/18 09:42:28;;;;;;;;;;;;;;;25.91;48.83;101978.91;5090484;28;19923;-69
2022/05/18 09:45:00;;;;;;;;;;;;;;;25.85;48.80;101979.59;5090606;28;19919;-68
2022/05/18 09:47:27;;;;;;;;;;;;;;;25.83;48.02;101974.31;5087988;28;19951;-68
2022/05/18 09:49:59;;;;;;;;;;;;;;;25.82;46.59;101981.66;5091837;28;20367;-68
2022/05/18 09:52:26;;;;;;;;;;;;;;;26.00;47.57;101970.56;5096425;28;20759;-69
2022/05/18 09:54:56;;;;;;;;;;;;;;;26.32;48.69;101974.28;5089102;28;19916;-69
2022/05/18 09:57:27;;;;;;;;;;;;;;;26.52;46.69;101982.97;5093973;28;20363;-69
2022/05/18 09:59:57;;;;;;;;;;;;;;;26.61;46.61;101978.34;5092901;28;20902;-69
2022/05/18 10:07:54;;;;;;;;;;;;;;;26.89;45.25;101985.09;5098609;28;19919;-69
2022/05/18 10:10:20;;;;;;;;;;;;;;;27.01;45.91;101985.53;5099187;28;20363;-69
2022/05/18 10:12:54;;;;;;;;;;;;;;;27.16;44.90;101988.41;5096337;28;19915;-69
2022/05/18 10:15:22;;;;;;;;;;;;;;;27.22;44.88;101979.50;5089723;28;20930;-69
2022/05/18 10:17:58;;;;;;;;;;;;;;;27.34;44.33;101980.78;5088101;28;19914;-69
2022/05/18 10:20:26;;;;;;;;;;;;;;;27.42;43.55;101979.06;5092061;28;19920;-68
2022/05/18 10:22:51;;;;;;;;;;;;;;;27.55;43.29;101976.56;5091162;28;19955;-69
2022/05/18 10:25:22;;;;;;;;;;;;;;;27.68;44.04;101975.94;5091011;28;20344;-69
2022/05/18 10:27:49;;;;;;;;;;;;;;;27.86;42.63;101973.81;5094092;28;19911;-70
2022/05/18 10:30:17;;;;;;;;;;;;;;;27.97;42.80;101972.50;5090942;28;20382;-70
2022/05/18 10:33:01;;;;;;;;;;;;;;;28.08;44.54;101975.66;5091313;28;19912;-69
2022/05/18 10:35:38;;;;;;;;;;;;;;;28.23;42.92;101970.22;5093944;28;19920;-69
2022/05/18 10:38:14;;;;;;;;;;;;;;;28.39;41.95;101971.94;5091043;28;19920;-68
2022/05/18 10:40:41;;;;;;;;;;;;;;;28.50;41.69;101967.91;5089066;28;19924;-66
2022/05/18 10:43:25;;;;;;;;;;;;;;;28.57;41.97;101973.50;5072172;28;19915;-67
2022/05/18 10:45:57;;;;;;;;;;;;;;;28.69;41.91;101964.63;5089942;28;20280;-67
2022/05/18 10:48:24;;;;;;;;;;;;;;;28.86;41.08;101958.97;5089173;28;20367;-68
2022/05/18 10:50:58;;;;;;;;;;;;;;;28.97;41.90;101955.72;5091549;28;20336;-67
2022/05/18 10:53:31;;;;;;;;;;;;;;;28.96;39.77;101956.75;5091052;28;20014;-68
2022/05/18 10:55:57;;;;;;;;;;;;;;;28.98;40.88;101954.69;5107165;28;19911;-67
2022/05/18 10:58:24;;;;;;;;;;;;;;;29.07;40.18;101955.47;5111454;28;20371;-67
2022/05/18 11:00:55;;;;;;;;;;;;;;;29.12;41.18;101951.09;5092522;28;19955;-67
2022/05/18 11:03:26;;;;;;;;;;;;;;;29.32;40.38;101953.22;5091061;28;19919;-67
2022/05/18 11:05:57;;;;;;;;;;;;;;;29.42;38.62;101957.34;5090357;28;19951;-67
2022/05/18 11:08:28;;;;;;;;;;;;;;;29.51;39.00;101946.25;5089475;28;19916;-67
2022/05/18 11:11:15;;;;;;;;;;;;;;;29.55;39.80;101959.38;5092134;28;19912;-67
2022/05/18 11:13:59;;;;;;;;;;;;;;;29.67;40.42;101950.66;5090731;28;19912;-67
2022/05/18 11:16:57;;;;;;;;;;;;;;;29.81;39.56;101947.00;5091361;28;19920;-67
2022/05/18 11:19:37;;;;;;;;;;;;;;;29.94;38.69;101949.84;5066857;28;19916;-68
2022/05/18 11:22:12;;;;;;;;;;;;;;;30.01;38.53;101961.72;5092919;28;20302;-68
2022/05/18 11:24:51;;;;;;;;;;;;;;;30.09;38.77;101955.22;5094846;28;20271;-67
2022/05/18 11:27:22;;;;;;;;;;;;;;;30.24;38.90;101945.06;5098790;28;19963;-67
2022/05/18 11:29:49;;;;;;;;;;;;;;;30.26;38.61;101953.06;5095430;28;19919;-67
2022/05/18 11:32:18;;;;;;;;;;;;;;;30.09;37.52;101947.00;5093873;28;19912;-67
2022/05/18 11:34:52;;;;;;;;;;;;;;;30.00;38.70;101940.84;5094927;28;20410;-67
2022/05/18 11:37:36;;;;;;;;;;;;;;;30.22;38.10;101936.16;5096251;28;19983;-67
2022/05/18 11:40:20;;;;;;;;;;;;;;;30.54;38.29;101931.94;5094359;28;19963;-67
2022/05/18 11:42:55;;;;;;;;;;;;;;;30.81;37.65;101928.50;5095419;28;20010;-67
2022/05/18 11:45:28;;;;;;;;;;;;;;;30.90;37.07;101928.13;5094841;28;19912;-67
2022/05/18 11:47:59;;;;;;;;;;;;;;;31.07;38.75;101928.59;5109422;28;19911;-67
2022/05/18 11:50:29;;;;;;;;;;;;;;;31.19;35.79;101929.69;5115530;28;19965;-67
2022/05/18 11:53:13;;;;;;;;;;;;;;;30.87;36.59;101930.44;5114232;28;19969;-67
2022/05/18 11:55:56;;;;;;;;;;;;;;;31.05;38.71;101927.94;5115527;28;19915;-68
2022/05/18 11:59:11;;;;;;;;;;;;;;;31.50;35.68;101931.03;5099632;28;19911;-67
2022/05/18 12:01:43;;;;;;;;;;;;;;;31.30;35.65;101943.91;5071361;28;19919;-66
2022/05/18 12:04:32;;;;;;;;;;;;;;;31.34;36.79;101945.19;5071988;28;19919;-67
2022/05/18 12:07:03;;;;;;;;;;;;;;;31.81;36.11;101929.59;5089969;28;19986;-70
2022/05/18 12:09:34;;;;;;;;;;;;;;;31.54;35.67;101929.59;5093060;28;20484;-70
2022/05/18 12:12:02;;;;;;;;;;;;;;;31.15;36.48;101927.56;5094641;28;19912;-70
2022/05/18 12:14:48;;;;;;;;;;;;;;;31.49;35.95;101928.53;5094593;28;20362;-70
2022/05/18 12:17:30;;;;;;;;;;;;;;;32.67;34.57;101932.28;5093530;28;19919;-70
2022/05/18 12:20:11;;;;;;;;;;;;;;;32.69;33.28;101934.81;5095657;28;19915;-70
2022/05/18 12:23:03;;;;;;;;;;;;;;;31.97;34.58;101931.94;5094688;28;19911;-70
2022/05/18 12:25:29;;;;;;;;;;;;;;;32.01;34.86;101926.88;5091512;28;19916;-70
2022/05/18 12:27:56;;;;;;;;;;;;;;;32.32;35.25;101934.44;5093274;28;19918;-70
2022/05/18 12:30:22;;;;;;;;;;;;;;;32.26;34.67;101935.31;5095328;28;20002;-69
2022/05/18 12:32:51;;;;;;;;;;;;;;;32.74;33.57;101933.09;5094104;28;20375;-70
2022/05/18 12:35:33;;;;;;;;;;;;;;;33.49;32.93;101935.28;5099197;28;20495;-69
2022/05/18 12:37:58;;;;;;;;;;;;;;;33.43;31.80;101930.66;5114396;28;20382;-70
2022/05/18 12:40:35;;;;;;;;;;;;;;;32.72;33.78;101945.41;5103338;28;19922;-69
2022/05/18 12:43:03;;;;;;;;;;;;;;;32.09;34.35;101929.41;5092593;28;19916;-70
2022/05/18 12:45:30;;;;;;;;;;;;;;;32.48;33.55;101930.44;5093818;28;19916;-70
2022/05/18 12:48:14;;;;;;;;;;;;;;;33.37;33.85;101932.38;5094068;28;19916;-69
2022/05/18 12:50:41;;;;;;;;;;;;;;;34.88;31.98;101922.06;5094727;28;19912;-70
2022/05/18 12:53:18;;;;;;;;;;;;;;;35.73;28.42;101923.84;5093348;28;19976;-70
2022/05/18 12:55:44;;;;;;;;;;;;;;;36.20;28.51;101920.28;5093683;28;19912;-71
2022/05/18 12:58:10;;;;;;;;;;;;;;;36.83;28.38;101925.00;5093563;28;20299;-69
2022/05/18 13:00:56;;;;;;;;;;;;;;;37.48;25.86;101924.63;5095314;28;19919;-70